Time;durP1;ratioP1;P1;durP2;ratioP2;P2;SDS_P1;SDS_P2;PMS_P1;PMS_P2;Temp;Humidity;BMP_temperature;BMP_pressure;BME280_temperature;BME280_humidity;BME280_pressure;Samples;Min_cycle;Max_cycle;Signal;HPM_P1;HPM_P2
2023/04/20 00:02:06;;;;;;;17.63;16.30;;;;;;;-142.25;100.00;58004.16;4911124;29;20322;-61
2023/04/20 00:04:31;;;;;;;14.10;12.90;;;;;;;-142.25;100.00;58004.16;4918659;29;20040;-61
2023/04/20 00:06:57;;;;;;;14.80;13.57;;;;;;;-142.25;100.00;58004.16;4910859;29;20304;-62
2023/04/20 00:09:23;;;;;;;20.57;18.73;;;;;;;-142.25;100.00;58004.16;4927449;29;20040;-61
2023/04/20 00:11:48;;;;;;;17.00;15.53;;;;;;;-142.25;100.00;58004.16;4913718;29;20514;-62
2023/04/20 00:14:15;;;;;;;16.73;15.37;;;;;;;-142.25;100.00;58004.16;4914029;29;20860;-61
2023/04/20 00:16:41;;;;;;;18.13;16.73;;;;;;;-142.25;100.00;58004.16;4912759;29;20059;-61
2023/04/20 00:19:06;;;;;;;16.03;14.77;;;;;;;-142.25;100.00;58004.16;4913670;29;20704;-61
2023/04/20 00:21:32;;;;;;;15.70;14.40;;;;;;;-142.25;100.00;58004.16;4912250;29;20324;-63
2023/04/20 00:23:58;;;;;;;15.60;14.33;;;;;;;-142.25;100.00;58004.16;4910770;29;20056;-63
2023/04/20 00:26:24;;;;;;;15.97;14.67;;;;;;;-142.25;100.00;58004.16;4913538;29;20821;-62
2023/04/20 00:28:52;;;;;;;16.67;15.37;;;;;;;-142.25;100.00;58004.16;4913540;29;20150;-62
2023/04/20 00:31:18;;;;;;;14.97;13.73;;;;;;;-142.25;100.00;58004.16;4912872;29;20310;-62
2023/04/20 00:33:46;;;;;;;16.83;15.53;;;;;;;-142.25;100.00;58004.16;4912156;29;20032;-62
2023/04/20 00:36:12;;;;;;;15.87;14.60;;;;;;;-142.25;100.00;58004.16;4911972;29;20668;-61
2023/04/20 00:38:38;;;;;;;16.33;15.03;;;;;;;-142.25;100.00;58004.16;4925530;29;20367;-61
2023/04/20 00:41:03;;;;;;;15.37;14.13;;;;;;;-142.25;100.00;58004.16;4911509;29;20493;-63
2023/04/20 00:43:30;;;;;;;16.97;15.60;;;;;;;-142.25;100.00;58004.16;4911918;29;20395;-62
2023/04/20 00:45:55;;;;;;;14.73;13.53;;;;;;;-142.25;100.00;58004.16;4915384;29;20367;-61
2023/04/20 00:48:21;;;;;;;15.37;14.07;;;;;;;-142.25;100.00;58004.16;4912429;29;20043;-62
2023/04/20 00:50:48;;;;;;;15.63;14.40;;;;;;;-142.25;100.00;58004.16;4912614;29;20043;-62
2023/04/20 00:53:14;;;;;;;18.07;16.70;;;;;;;-142.25;100.00;58004.16;4911829;29;20040;-63
2023/04/20 00:55:42;;;;;;;17.07;15.67;;;;;;;-142.25;100.00;58004.16;4926268;29;20306;-62
2023/04/20 00:58:11;;;;;;;16.47;15.20;;;;;;;-142.25;100.00;58004.16;4911615;29;20439;-65
2023/04/20 01:00:39;;;;;;;16.40;15.13;;;;;;;-142.25;100.00;58004.16;4926702;29;20295;-62
2023/04/20 01:03:06;;;;;;;17.53;16.20;;;;;;;-142.25;100.00;58004.16;4910560;29;20377;-62
2023/04/20 01:05:32;;;;;;;17.97;16.50;;;;;;;-142.25;100.00;58004.16;4909292;29;20659;-62
2023/04/20 01:07:58;;;;;;;19.90;18.40;;;;;;;-142.25;100.00;58004.16;4911557;29;20771;-62
2023/04/20 01:10:26;;;;;;;15.87;14.63;;;;;;;-142.25;100.00;58004.16;4910801;29;20303;-62
2023/04/20 01:12:52;;;;;;;14.57;13.33;;;;;;;-142.25;100.00;58004.16;4909149;29;20311;-62
2023/04/20 01:15:17;;;;;;;20.00;18.47;;;;;;;-142.25;100.00;58004.16;4911446;29;20048;-62
2023/04/20 01:17:45;;;;;;;16.23;14.93;;;;;;;-142.25;100.00;58004.16;4912366;29;20122;-62
2023/04/20 01:20:11;;;;;;;15.50;14.27;;;;;;;-142.25;100.00;58004.16;4914711;29;20901;-62
2023/04/20 01:22:48;;;;;;;15.87;14.57;;;;;;;-142.25;100.00;58004.16;4915474;29;20096;-62
2023/04/20 01:25:14;;;;;;;14.83;13.60;;;;;;;-142.25;100.00;58004.16;4915569;29;20371;-64
2023/04/20 01:27:41;;;;;;;16.27;15.03;;;;;;;-142.25;100.00;58004.16;4916097;29;20855;-62
2023/04/20 01:30:07;;;;;;;16.13;14.83;;;;;;;-142.25;100.00;58004.16;4931570;29;20799;-62
2023/04/20 01:32:36;;;;;;;17.47;16.20;;;;;;;-142.25;100.00;58004.16;4917377;29;20268;-62
2023/04/20 01:35:02;;;;;;;15.73;14.50;;;;;;;-142.25;100.00;58004.16;4929352;29;20717;-62
2023/04/20 01:37:28;;;;;;;19.47;18.10;;;;;;;-142.25;100.00;58004.16;4926280;29;20059;-62
2023/04/20 01:39:53;;;;;;;20.03;18.57;;;;;;;-142.25;100.00;58004.16;4898256;29;20311;-61
2023/04/20 01:42:20;;;;;;;19.50;18.07;;;;;;;-142.25;100.00;58004.16;4910679;29;20055;-61
2023/04/20 01:44:47;;;;;;;17.63;16.33;;;;;;;-142.25;100.00;58004.16;4912805;29;20300;-62
2023/04/20 01:47:14;;;;;;;16.53;15.30;;;;;;;-142.25;100.00;58004.16;4923757;29;20292;-61
2023/04/20 01:49:39;;;;;;;14.80;13.60;;;;;;;-142.25;100.00;58004.16;4930134;29;20323;-61
2023/04/20 01:52:06;;;;;;;14.53;13.33;;;;;;;-142.25;100.00;58004.16;4916532;29;20080;-61
2023/04/20 01:54:32;;;;;;;14.60;13.40;;;;;;;-142.25;100.00;58004.16;4914179;29;20098;-61
2023/04/20 01:56:57;;;;;;;16.27;14.97;;;;;;;-142.25;100.00;58004.16;4916106;29;20929;-61
2023/04/20 01:59:23;;;;;;;13.80;12.67;;;;;;;-142.25;100.00;58004.16;4915369;29;20108;-62
2023/04/20 02:01:48;;;;;;;16.20;14.93;;;;;;;-142.25;100.00;58004.16;4915198;29;20072;-61
2023/04/20 02:04:14;;;;;;;15.40;14.17;;;;;;;-142.25;100.00;58004.16;4915377;29;20043;-61
2023/04/20 02:06:40;;;;;;;15.07;13.87;;;;;;;-142.25;100.00;58004.16;4930476;29;20055;-63
2023/04/20 02:09:08;;;;;;;15.00;13.83;;;;;;;-142.25;100.00;58004.16;4928594;29;20043;-61
2023/04/20 02:11:34;;;;;;;15.20;13.97;;;;;;;-142.25;100.00;58004.16;4923924;29;20382;-61
2023/04/20 02:13:59;;;;;;;15.90;14.67;;;;;;;-142.25;100.00;58004.16;4923623;29;20040;-61
2023/04/20 02:16:28;;;;;;;16.60;15.33;;;;;;;-142.25;100.00;58004.16;4914851;29;20306;-61
2023/04/20 02:18:54;;;;;;;16.07;14.77;;;;;;;-142.25;100.00;58004.16;4929365;29;20043;-61
2023/04/20 02:21:20;;;;;;;14.97;13.77;;;;;;;-142.25;100.00;58004.16;4914506;29;20787;-61
2023/04/20 02:23:45;;;;;;;18.27;16.93;;;;;;;-142.25;100.00;58004.16;4910905;29;20307;-61
2023/04/20 02:26:11;;;;;;;15.40;14.20;;;;;;;-142.25;100.00;58004.16;4919677;29;20040;-61
2023/04/20 02:28:39;;;;;;;15.77;14.50;;;;;;;-142.25;100.00;58004.16;4928701;29;20071;-62
2023/04/20 02:31:05;;;;;;;15.23;14.00;;;;;;;-142.25;100.00;58004.16;4912293;29;20380;-62
2023/04/20 02:33:31;;;;;;;17.23;15.93;;;;;;;-142.25;100.00;58004.16;4912240;29;20292;-62
2023/04/20 02:35:57;;;;;;;17.13;15.87;;;;;;;-142.25;100.00;58004.16;4910918;29;20647;-62
2023/04/20 02:38:22;;;;;;;16.77;15.43;;;;;;;-142.25;100.00;58004.16;4922061;29;20475;-62
2023/04/20 02:40:48;;;;;;;15.63;14.40;;;;;;;-142.25;100.00;58004.16;4914768;29;20167;-62
2023/04/20 02:43:15;;;;;;;15.13;13.90;;;;;;;-142.25;100.00;58004.16;4928584;29;20032;-62
2023/04/20 02:45:41;;;;;;;14.13;12.93;;;;;;;-142.25;100.00;58004.16;4926345;28;20876;-62
2023/04/20 02:48:07;;;;;;;16.17;14.83;;;;;;;-142.25;100.00;58004.16;4927606;29;20121;-62
2023/04/20 02:50:35;;;;;;;15.17;13.93;;;;;;;-142.25;100.00;58004.16;4917543;29;20287;-62
2023/04/20 02:53:15;;;;;;;16.47;15.17;;;;;;;-142.25;100.00;58004.16;4928843;29;20306;-61
2023/04/20 02:55:43;;;;;;;19.03;17.63;;;;;;;-142.25;100.00;58004.16;4927520;29;20350;-60
2023/04/20 02:58:37;;;;;;;16.73;15.40;;;;;;;-142.25;100.00;58004.16;4920500;29;20415;-72
2023/04/20 03:01:16;;;;;;;15.63;14.33;;;;;;;-142.25;100.00;58004.16;4928207;29;20795;-65
2023/04/20 03:03:43;;;;;;;15.13;13.90;;;;;;;-142.25;100.00;58004.16;4927230;29;20947;-61
2023/04/20 03:06:10;;;;;;;16.13;14.83;;;;;;;-142.25;100.00;58004.16;4915776;29;20304;-61
2023/04/20 03:08:38;;;;;;;15.47;14.17;;;;;;;-142.25;100.00;58004.16;4927047;29;20354;-60
2023/04/20 03:11:24;;;;;;;18.03;16.63;;;;;;;-142.25;100.00;58004.16;4913497;29;20342;-60
2023/04/20 03:13:50;;;;;;;16.87;15.43;;;;;;;-142.25;100.00;58004.16;4925600;29;20759;-60
2023/04/20 03:16:17;;;;;;;14.63;13.40;;;;;;;-142.25;100.00;58004.16;4921965;29;20100;-61
2023/04/20 03:18:47;;;;;;;17.73;16.37;;;;;;;-142.25;100.00;58004.16;4927799;29;20182;-61
2023/04/20 03:21:13;;;;;;;19.27;17.83;;;;;;;-142.25;100.00;58004.16;4926650;29;20295;-61
2023/04/20 03:23:39;;;;;;;16.83;15.50;;;;;;;-142.25;100.00;58004.16;4925921;29;20640;-61
2023/04/20 03:26:06;;;;;;;15.97;14.67;;;;;;;-142.25;100.00;58004.16;4919653;29;20664;-61
2023/04/20 03:28:58;;;;;;;15.57;14.27;;;;;;;-142.25;100.00;58004.16;4902319;29;20304;-60
2023/04/20 03:31:25;;;;;;;13.83;12.63;;;;;;;-142.25;100.00;58004.16;4898351;29;21338;-61
2023/04/20 03:33:52;;;;;;;16.70;15.30;;;;;;;-142.25;100.00;58004.16;4896298;29;20343;-61
2023/04/20 03:36:21;;;;;;;16.00;14.67;;;;;;;-142.25;100.00;58004.16;4897225;29;20403;-61
2023/04/20 03:38:47;;;;;;;16.63;15.20;;;;;;;-142.25;100.00;58004.16;4881801;29;20284;-60
2023/04/20 03:41:13;;;;;;;17.00;15.60;;;;;;;-142.25;100.00;58004.16;4895786;29;20379;-60
2023/04/20 03:43:40;;;;;;;13.80;12.57;;;;;;;-142.25;100.00;58004.16;4886774;29;20044;-61
2023/04/20 03:46:06;;;;;;;16.20;14.83;;;;;;;-142.25;100.00;58004.16;4897433;29;20304;-61
2023/04/20 03:48:33;;;;;;;17.83;16.37;;;;;;;-142.25;100.00;58004.16;4898157;29;20300;-61
2023/04/20 03:50:58;;;;;;;15.07;13.73;;;;;;;-142.25;100.00;58004.16;4882903;29;20761;-61
2023/04/20 03:53:25;;;;;;;20.27;18.73;;;;;;;-142.25;100.00;58004.16;4902743;29;20334;-61
2023/04/20 03:55:51;;;;;;;14.60;13.40;;;;;;;-142.25;100.00;58004.16;4900250;29;20032;-61
2023/04/20 03:58:20;;;;;;;14.67;13.47;;;;;;;-142.25;100.00;58004.16;4899285;29;20346;-61
2023/04/20 04:01:12;;;;;;;15.77;14.40;;;;;;;-142.25;100.00;58004.16;4899040;29;20310;-61
2023/04/20 04:03:42;;;;;;;16.07;14.80;;;;;;;-142.25;100.00;58004.16;4894076;29;20300;-61
2023/04/20 04:06:10;;;;;;;17.20;15.87;;;;;;;-142.25;100.00;58004.16;4908457;29;20317;-61
2023/04/20 04:08:36;;;;;;;16.30;15.00;;;;;;;-142.25;100.00;58004.16;4925170;29;20276;-61
2023/04/20 04:11:02;;;;;;;15.80;14.47;;;;;;;-142.25;100.00;58004.16;4926402;29;20303;-61
2023/04/20 04:13:28;;;;;;;14.43;13.20;;;;;;;-142.25;100.00;58004.16;4912704;29;20319;-61
2023/04/20 04:15:54;;;;;;;14.77;13.53;;;;;;;-142.25;100.00;58004.16;4929379;29;20538;-61
2023/04/20 04:18:20;;;;;;;16.10;14.80;;;;;;;-142.25;100.00;58004.16;4924981;28;20048;-61
2023/04/20 04:20:47;;;;;;;15.53;14.30;;;;;;;-142.25;100.00;58004.16;4927136;29;20299;-61
2023/04/20 04:23:14;;;;;;;17.13;15.77;;;;;;;-142.25;100.00;58004.16;4927013;29;20312;-61
2023/04/20 04:25:57;;;;;;;15.07;13.80;;;;;;;-142.25;100.00;58004.16;4920201;29;20303;-61
2023/04/20 04:28:25;;;;;;;14.93;13.70;;;;;;;-142.25;100.00;58004.16;4926647;29;20308;-60
2023/04/20 04:31:04;;;;;;;;;;;;;;;-142.25;100.00;58004.16;4927238;28;20311;-60
2023/04/20 04:33:33;;;;;;;18.50;17.00;;;;;;;-142.25;100.00;58004.16;4923896;29;19923;-60
2023/04/20 04:36:00;;;;;;;17.53;16.03;;;;;;;-142.25;100.00;58004.16;4927031;29;20355;-60
2023/04/20 04:38:26;;;;;;;15.17;13.90;;;;;;;-142.25;100.00;58004.16;4925340;29;20295;-61
2023/04/20 04:40:52;;;;;;;15.87;14.53;;;;;;;-142.25;100.00;58004.16;4916120;29;20354;-60
2023/04/20 04:43:19;;;;;;;14.40;13.10;;;;;;;-142.25;100.00;58004.16;4926229;29;20870;-60
2023/04/20 04:45:54;;;;;;;15.23;13.98;;;;;;;-142.25;100.00;58004.16;4926125;29;20166;-60
2023/04/20 04:48:20;;;;;;;15.37;14.10;;;;;;;-142.25;100.00;58004.16;4925051;29;20059;-62
2023/04/20 04:50:46;;;;;;;17.43;15.93;;;;;;;-142.25;100.00;58004.16;4926916;29;20870;-61
2023/04/20 04:53:11;;;;;;;19.20;17.70;;;;;;;-142.25;100.00;58004.16;4925341;29;20051;-61
2023/04/20 04:55:37;;;;;;;15.37;14.10;;;;;;;-142.25;100.00;58004.16;4912649;29;20837;-61
2023/04/20 04:58:02;;;;;;;19.67;18.03;;;;;;;-142.25;100.00;58004.16;4912021;29;20060;-61
2023/04/20 05:00:28;;;;;;;16.23;14.90;;;;;;;-142.25;100.00;58004.16;4911261;29;20044;-64
2023/04/20 05:02:57;;;;;;;16.27;14.80;;;;;;;-142.25;100.00;58004.16;4913274;29;20043;-62
2023/04/20 05:05:24;;;;;;;15.80;14.50;;;;;;;-142.25;100.00;58004.16;4911464;29;20772;-63
2023/04/20 05:07:50;;;;;;;18.93;17.40;;;;;;;-142.25;100.00;58004.16;4910814;29;20499;-63
2023/04/20 05:10:18;;;;;;;15.97;14.67;;;;;;;-142.25;100.00;58004.16;4911891;29;20303;-61
2023/04/20 05:12:45;;;;;;;17.97;16.53;;;;;;;-142.25;100.00;58004.16;4912119;29;20055;-62
2023/04/20 05:15:10;;;;;;;18.60;17.13;;;;;;;-142.25;100.00;58004.16;4926263;29;20387;-60
2023/04/20 05:17:36;;;;;;;19.50;18.03;;;;;;;-142.25;100.00;58004.16;4911042;29;20367;-62
2023/04/20 05:20:06;;;;;;;21.77;20.23;;;;;;;-142.25;100.00;58004.16;4909455;29;20280;-61
2023/04/20 05:22:32;;;;;;;25.90;23.43;;;;;;;-142.25;100.00;58004.16;4912038;29;20044;-62
2023/04/20 05:24:57;;;;;;;19.23;17.80;;;;;;;-142.25;100.00;58004.16;4909301;29;20744;-62
2023/04/20 05:27:23;;;;;;;16.43;15.03;;;;;;;-142.25;100.00;58004.16;4908473;29;20043;-62
2023/04/20 05:29:49;;;;;;;16.63;15.37;;;;;;;-142.25;100.00;58004.16;4911277;29;20039;-62
2023/04/20 05:32:15;;;;;;;18.13;16.73;;;;;;;-142.25;100.00;58004.16;4910852;29;20040;-63
2023/04/20 05:34:40;;;;;;;15.27;13.90;;;;;;;-142.25;100.00;58004.16;4909622;29;20374;-62
2023/04/20 05:37:06;;;;;;;16.13;14.47;;;;;;;-142.25;100.00;58004.16;4913215;29;20047;-64
2023/04/20 05:39:31;;;;;;;18.03;16.67;;;;;;;-142.25;100.00;58004.16;4912190;29;20475;-66
2023/04/20 05:41:57;;;;;;;18.53;16.97;;;;;;;-142.25;100.00;58004.16;4911183;29;20616;-65
2023/04/20 05:44:23;;;;;;;16.67;15.20;;;;;;;-142.25;100.00;58004.16;4912102;29;20052;-64
2023/04/20 05:46:49;;;;;;;19.13;17.43;;;;;;;-142.25;100.00;58004.16;4912013;29;20048;-64
2023/04/20 05:49:14;;;;;;;18.93;17.47;;;;;;;-142.25;100.00;58004.16;4911981;29;20074;-64
2023/04/20 05:51:40;;;;;;;14.83;13.53;;;;;;;-142.25;100.00;58004.16;4913755;29;20872;-63
2023/04/20 05:54:06;;;;;;;17.57;16.17;;;;;;;-142.25;100.00;58004.16;4911778;29;20046;-67
2023/04/20 05:56:31;;;;;;;17.70;16.33;;;;;;;-142.25;100.00;58004.16;4913084;29;20048;-65
2023/04/20 05:58:58;;;;;;;17.77;16.30;;;;;;;-142.25;100.00;58004.16;4917619;29;20653;-64
2023/04/20 06:01:24;;;;;;;15.20;13.87;;;;;;;-142.25;100.00;58004.16;4916596;29;20528;-65
2023/04/20 06:03:50;;;;;;;17.43;16.07;;;;;;;-142.25;100.00;58004.16;4914618;29;20296;-67
2023/04/20 06:06:15;;;;;;;15.67;14.33;;;;;;;-142.25;100.00;58004.16;4913701;29;20047;-65
2023/04/20 06:08:41;;;;;;;13.10;11.97;;;;;;;-142.25;100.00;58004.16;4915515;29;20110;-63
2023/04/20 06:11:07;;;;;;;15.97;14.63;;;;;;;-142.25;100.00;58004.16;4913389;29;20445;-64
2023/04/20 06:13:32;;;;;;;16.87;15.27;;;;;;;-142.25;100.00;58004.16;4913000;29;20549;-64
2023/04/20 06:15:58;;;;;;;17.37;15.70;;;;;;;-142.25;100.00;58004.16;4914205;29;20636;-65
2023/04/20 06:18:24;;;;;;;27.23;25.60;;;;;;;-142.25;100.00;58004.16;4915417;29;20178;-65
2023/04/20 06:20:49;;;;;;;15.20;13.93;;;;;;;-142.25;100.00;58004.16;4930609;29;20058;-64
2023/04/20 06:23:18;;;;;;;18.13;16.60;;;;;;;-142.25;100.00;58004.16;4914761;29;20578;-65
2023/04/20 06:25:44;;;;;;;19.20;17.80;;;;;;;-142.25;100.00;58004.16;4915644;29;20321;-65
2023/04/20 06:28:10;;;;;;;22.20;20.53;;;;;;;-142.25;100.00;58004.16;4913396;29;20523;-65
2023/04/20 06:30:35;;;;;;;19.87;18.23;;;;;;;-142.25;100.00;58004.16;4913415;29;20087;-64
2023/04/20 06:33:01;;;;;;;19.10;17.63;;;;;;;-142.25;100.00;58004.16;4915278;29;20427;-63
2023/04/20 06:35:27;;;;;;;17.80;16.43;;;;;;;-142.25;100.00;58004.16;4916272;29;20055;-60
2023/04/20 06:37:56;;;;;;;18.77;17.33;;;;;;;-142.25;100.00;58004.16;4913973;29;20314;-61
2023/04/20 06:40:25;;;;;;;17.13;15.63;;;;;;;-142.25;100.00;58004.16;4913061;29;20067;-62
2023/04/20 06:42:50;;;;;;;17.10;15.77;;;;;;;-142.25;100.00;58004.16;4914160;29;20364;-60
2023/04/20 06:45:17;;;;;;;16.50;15.17;;;;;;;-142.25;100.00;58004.16;4927144;29;20650;-60
2023/04/20 06:47:43;;;;;;;19.13;17.77;;;;;;;-142.25;100.00;58004.16;4929483;29;20051;-60
2023/04/20 06:50:09;;;;;;;18.97;17.47;;;;;;;-142.25;100.00;58004.16;4915420;29;20299;-60
2023/04/20 06:52:37;;;;;;;16.83;15.53;;;;;;;-142.25;100.00;58004.16;4919387;29;20052;-61
2023/04/20 06:55:03;;;;;;;19.37;17.93;;;;;;;-142.25;100.00;58004.16;4912615;29;20319;-63
2023/04/20 06:57:29;;;;;;;17.50;16.17;;;;;;;-142.25;100.00;58004.16;4912137;29;20556;-63
2023/04/20 06:59:54;;;;;;;16.07;14.80;;;;;;;-142.25;100.00;58004.16;4912965;29;20283;-64
2023/04/20 07:02:20;;;;;;;17.57;16.27;;;;;;;-142.25;100.00;58004.16;4913674;29;20107;-64
2023/04/20 07:04:46;;;;;;;18.63;17.20;;;;;;;-142.25;100.00;58004.16;4926775;29;20052;-65
2023/04/20 07:07:11;;;;;;;16.33;15.03;;;;;;;-142.25;100.00;58004.16;4911878;29;20044;-65
2023/04/20 07:09:37;;;;;;;15.10;13.90;;;;;;;-142.25;100.00;58004.16;4926163;29;20078;-65
2023/04/20 07:12:02;;;;;;;20.20;18.77;;;;;;;-142.25;100.00;58004.16;4914413;29;20044;-65
2023/04/20 07:14:29;;;;;;;18.70;17.37;;;;;;;-142.25;100.00;58004.16;4923284;29;20131;-65
2023/04/20 07:16:54;;;;;;;17.67;16.40;;;;;;;-142.25;100.00;58004.16;4917678;29;20612;-66
2023/04/20 07:19:20;;;;;;;22.13;20.43;;;;;;;-142.25;100.00;58004.16;4912147;29;20488;-64
2023/04/20 07:21:46;;;;;;;15.73;14.53;;;;;;;-142.25;100.00;58004.16;4914705;29;20040;-63
2023/04/20 07:24:12;;;;;;;18.20;16.83;;;;;;;-142.25;100.00;58004.16;4930846;29;20044;-63
2023/04/20 07:26:40;;;;;;;15.03;13.87;;;;;;;-142.25;100.00;58004.16;4916639;29;20059;-62
2023/04/20 07:29:06;;;;;;;17.00;15.73;;;;;;;-142.25;100.00;58004.16;4913606;29;20071;-63
2023/04/20 07:31:31;;;;;;;14.27;13.13;;;;;;;-142.25;100.00;58004.16;4914386;29;20759;-62
2023/04/20 07:33:57;;;;;;;15.17;14.10;;;;;;;-142.25;100.00;58004.16;4913545;29;20067;-62
2023/04/20 07:36:23;;;;;;;16.47;15.33;;;;;;;-142.25;100.00;58004.16;4912076;29;20059;-63
2023/04/20 07:38:48;;;;;;;15.33;14.23;;;;;;;-142.25;100.00;58004.16;4912554;29;20048;-63
2023/04/20 07:41:14;;;;;;;15.47;14.33;;;;;;;-142.25;100.00;58004.16;4911593;29;20071;-63
2023/04/20 07:43:40;;;;;;;17.30;16.13;;;;;;;-142.25;100.00;58004.16;4912449;29;20060;-63
2023/04/20 07:46:06;;;;;;;15.13;14.03;;;;;;;-142.25;100.00;58004.16;4913855;29;20619;-63
2023/04/20 07:48:35;;;;;;;15.57;14.40;;;;;;;-142.25;100.00;58004.16;4926675;29;20040;-64
2023/04/20 07:51:01;;;;;;;14.80;13.73;;;;;;;-142.25;100.00;58004.16;4913308;29;20441;-63
2023/04/20 07:53:28;;;;;;;14.67;13.63;;;;;;;-142.25;100.00;58004.16;4911748;29;20296;-63
2023/04/20 07:55:53;;;;;;;20.33;18.83;;;;;;;-142.25;100.00;58004.16;4909372;29;20047;-64
2023/04/20 07:58:20;;;;;;;15.60;14.47;;;;;;;-142.25;100.00;58004.16;4910258;29;20759;-63
2023/04/20 08:00:46;;;;;;;17.27;16.17;;;;;;;-142.25;100.00;58004.16;4913000;29;20084;-63
2023/04/20 08:03:13;;;;;;;16.57;15.43;;;;;;;-142.25;100.00;58004.16;4912624;29;20288;-63
2023/04/20 08:05:39;;;;;;;18.17;17.00;;;;;;;-142.25;100.00;58004.16;4911900;29;20385;-64
2023/04/20 08:08:05;;;;;;;15.27;14.20;;;;;;;-142.25;100.00;58004.16;4912654;29;20355;-70
2023/04/20 08:10:31;;;;;;;17.17;16.00;;;;;;;-142.25;100.00;58004.16;4911309;29;20391;-70
2023/04/20 08:12:57;;;;;;;17.93;16.67;;;;;;;-142.25;100.00;58004.16;4910162;29;20507;-71
2023/04/20 08:15:22;;;;;;;16.47;15.27;;;;;;;-142.25;100.00;58004.16;4913782;29;20407;-71
2023/04/20 08:17:48;;;;;;;15.60;14.50;;;;;;;-142.25;100.00;58004.16;4914097;29;20191;-71
2023/04/20 08:20:14;;;;;;;18.00;16.70;;;;;;;-142.25;100.00;58004.16;4913733;29;20590;-71
2023/04/20 08:22:39;;;;;;;15.90;14.83;;;;;;;-142.25;100.00;58004.16;4912518;29;20801;-71
2023/04/20 08:25:05;;;;;;;18.07;16.80;;;;;;;-142.25;100.00;58004.16;4926875;29;20043;-71
2023/04/20 08:27:31;;;;;;;16.57;15.40;;;;;;;-142.25;100.00;58004.16;4912286;29;20052;-70
2023/04/20 08:29:57;;;;;;;15.87;14.70;;;;;;;-142.25;100.00;58004.16;4912363;29;20061;-71
2023/04/20 08:32:25;;;;;;;15.03;13.93;;;;;;;-142.25;100.00;58004.16;4915771;29;20063;-71
2023/04/20 08:34:51;;;;;;;15.97;14.90;;;;;;;-142.25;100.00;58004.16;4912412;29;20047;-71
2023/04/20 08:37:17;;;;;;;15.47;14.40;;;;;;;-142.25;100.00;58004.16;4911811;29;20799;-71
2023/04/20 08:39:43;;;;;;;15.40;14.30;;;;;;;-142.25;100.00;58004.16;4913598;29;20303;-71
2023/04/20 08:42:09;;;;;;;19.73;18.37;;;;;;;-142.25;100.00;58004.16;4918780;29;20104;-72
2023/04/20 08:44:35;;;;;;;18.20;17.00;;;;;;;-142.25;100.00;58004.16;4924421;29;20044;-70
2023/04/20 08:47:02;;;;;;;16.77;15.60;;;;;;;-142.25;100.00;58004.16;4912317;29;20311;-70
2023/04/20 08:49:31;;;;;;;16.53;15.37;;;;;;;-142.25;100.00;58004.16;4912891;29;20070;-71
2023/04/20 08:51:57;;;;;;;18.53;17.17;;;;;;;-142.25;100.00;58004.16;4911733;29;20296;-63
2023/04/20 08:54:22;;;;;;;18.90;17.60;;;;;;;-142.25;100.00;58004.16;4912537;29;20380;-61
2023/04/20 08:56:48;;;;;;;20.20;18.87;;;;;;;-142.25;100.00;58004.16;4909060;29;20384;-61
2023/04/20 08:59:15;;;;;;;16.43;15.27;;;;;;;-142.25;100.00;58004.16;4911696;29;20495;-61
2023/04/20 09:01:42;;;;;;;15.90;14.73;;;;;;;-142.25;100.00;58004.16;4926350;29;20047;-60
2023/04/20 09:04:19;;;;;;;15.30;14.23;;;;;;;-142.25;100.00;58004.16;4912568;29;20052;-61
2023/04/20 09:06:46;;;;;;;18.63;17.37;;;;;;;-142.25;100.00;58004.16;4911420;29;20194;-64
2023/04/20 09:09:11;;;;;;;19.13;17.90;;;;;;;-142.25;100.00;58004.16;4911741;29;20507;-61
2023/04/20 09:11:38;;;;;;;19.10;17.83;;;;;;;-142.25;100.00;58004.16;4912118;29;20110;-61
2023/04/20 09:14:11;;;;;;;18.30;17.10;;;;;;;-142.25;100.00;58004.16;4912203;29;20570;-62
2023/04/20 09:16:50;;;;;;;16.60;15.43;;;;;;;-142.25;100.00;58004.16;4912066;29;20147;-64
2023/04/20 09:19:24;;;;;;;18.20;16.97;;;;;;;-142.25;100.00;58004.16;4910281;29;20045;-62
2023/04/20 09:21:52;;;;;;;19.30;18.07;;;;;;;-142.25;100.00;58004.16;4910122;29;20040;-65
2023/04/20 09:24:22;;;;;;;18.30;17.07;;;;;;;-142.25;100.00;58004.16;4910854;28;20355;-62
2023/04/20 09:26:48;;;;;;;20.40;19.07;;;;;;;-142.25;100.00;58004.16;4910118;29;20051;-62
2023/04/20 09:29:17;;;;;;;18.63;17.40;;;;;;;-142.25;100.00;58004.16;4910641;29;20555;-61
2023/04/20 09:31:42;;;;;;;17.93;16.70;;;;;;;-142.25;100.00;58004.16;4910113;29;20055;-62
2023/04/20 09:34:08;;;;;;;32.27;30.03;;;;;;;-142.25;100.00;58004.16;4911068;29;20451;-62
2023/04/20 09:36:45;;;;;;;17.70;16.47;;;;;;;-142.25;100.00;58004.16;4915543;29;20048;-62
2023/04/20 09:39:16;;;;;;;19.33;17.80;;;;;;;-142.25;100.00;58004.16;4914132;29;20504;-62
2023/04/20 09:41:42;;;;;;;17.20;16.03;;;;;;;-142.25;100.00;58004.16;4916938;29;20621;-62
2023/04/20 09:44:10;;;;;;;16.73;15.60;;;;;;;-142.25;100.00;58004.16;4915505;29;20043;-62
2023/04/20 09:46:38;;;;;;;17.03;15.87;;;;;;;-142.25;100.00;58004.16;4917230;29;20098;-62
2023/04/20 09:49:06;;;;;;;16.73;15.53;;;;;;;-142.25;100.00;58004.16;4916268;29;20039;-62
2023/04/20 09:51:34;;;;;;;15.53;14.43;;;;;;;-142.25;100.00;58004.16;4932861;29;20040;-62
2023/04/20 09:54:02;;;;;;;19.77;18.50;;;;;;;-142.25;100.00;58004.16;4914563;29;20044;-62
2023/04/20 09:56:29;;;;;;;19.43;18.20;;;;;;;-142.25;100.00;58004.16;4912356;29;20144;-62
2023/04/20 09:58:56;;;;;;;17.17;15.97;;;;;;;-142.25;100.00;58004.16;4913420;29;20129;-62
2023/04/20 10:01:22;;;;;;;17.73;16.57;;;;;;;-142.25;100.00;58004.16;4915035;29;20457;-62
2023/04/20 10:03:49;;;;;;;17.57;16.57;;;;;;;-142.25;100.00;58004.16;4914340;29;20376;-65
2023/04/20 10:06:26;;;;;;;17.90;16.90;;;;;;;-142.25;100.00;58004.16;4914056;29;20138;-62
2023/04/20 10:08:52;;;;;;;18.80;17.57;;;;;;;-142.25;100.00;58004.16;4915663;29;20165;-62
2023/04/20 10:11:33;;;;;;;17.13;16.10;;;;;;;-142.25;100.00;58004.16;4928671;29;20043;-62
2023/04/20 10:14:01;;;;;;;17.17;16.07;;;;;;;-142.25;100.00;58004.16;4915572;29;20052;-62
2023/04/20 10:16:27;;;;;;;17.23;16.20;;;;;;;-142.25;100.00;58004.16;4915234;29;20044;-62
2023/04/20 10:19:03;;;;;;;17.30;16.27;;;;;;;-142.25;100.00;58004.16;4913869;29;20056;-62
2023/04/20 10:21:31;;;;;;;17.00;16.00;;;;;;;-142.25;100.00;58004.16;4915819;29;20453;-63
2023/04/20 10:24:01;;;;;;;21.60;20.37;;;;;;;-142.25;100.00;58004.16;4911399;29;20047;-62
2023/04/20 10:26:46;;;;;;;14.47;13.57;;;;;;;-142.25;100.00;58004.16;4910977;29;20039;-61
2023/04/20 10:29:28;;;;;;;17.23;15.90;;;;;;;-142.25;100.00;58004.16;4914608;29;20061;-61
2023/04/20 10:31:54;;;;;;;16.17;15.20;;;;;;;-142.25;100.00;58004.16;4914778;29;20040;-61
2023/04/20 10:34:33;;;;;;;17.00;15.97;;;;;;;-142.25;100.00;58004.16;4914555;29;20044;-61
2023/04/20 10:37:09;;;;;;;16.40;15.43;;;;;;;-142.25;100.00;58004.16;4914712;29;20122;-60
2023/04/20 10:39:36;;;;;;;15.70;14.80;;;;;;;-142.25;100.00;58004.16;4913307;29;20043;-60
2023/04/20 10:42:03;;;;;;;15.83;14.87;;;;;;;-142.25;100.00;58004.16;4915403;29;20099;-61
2023/04/20 10:44:29;;;;;;;17.03;15.97;;;;;;;-142.25;100.00;58004.16;4926640;29;20062;-60
2023/04/20 10:46:55;;;;;;;16.37;15.37;;;;;;;-142.25;100.00;58004.16;4926532;29;20035;-61
2023/04/20 10:49:29;;;;;;;15.70;14.73;;;;;;;-142.25;100.00;58004.16;4919170;29;20047;-60
2023/04/20 10:51:55;;;;;;;17.07;16.10;;;;;;;-142.25;100.00;58004.16;4911664;28;20483;-60
2023/04/20 10:54:21;;;;;;;18.57;17.50;;;;;;;-142.25;100.00;58004.16;4911551;29;20043;-60
2023/04/20 10:56:51;;;;;;;19.57;18.40;;;;;;;-142.25;100.00;58004.16;4911241;29;20517;-61